Time;durP1;ratioP1;P1;durP2;ratioP2;P2;SDS_P1;SDS_P2;PMS_P1;PMS_P2;Temp;Humidity;BMP_temperature;BMP_pressure;BME280_temperature;BME280_humidity;BME280_pressure;Samples;Min_cycle;Max_cycle;Signal;HPM_P1;HPM_P2
2023/04/28 00:00:53;;;;;;;;;;;11.70;67.20;;;;;;5090491;28;19967;-69
2023/04/28 00:03:19;;;;;;;;;;;11.70;67.20;;;;;;5087148;28;19927;-68
2023/04/28 00:05:48;;;;;;;;;;;11.70;67.40;;;;;;5088992;28;19928;-68
2023/04/28 00:08:15;;;;;;;;;;;11.70;67.50;;;;;;5088986;28;19931;-68
2023/04/28 00:10:41;;;;;;;;;;;11.70;67.40;;;;;;5088853;28;19932;-68
2023/04/28 00:13:10;;;;;;;;;;;11.60;67.70;;;;;;5089914;28;19924;-68
2023/04/28 00:15:37;;;;;;;;;;;11.60;67.60;;;;;;5088307;28;19970;-69
2023/04/28 00:18:04;;;;;;;;;;;11.60;68.00;;;;;;5088406;28;19947;-68
2023/04/28 00:20:30;;;;;;;;;;;11.70;68.40;;;;;;5071354;28;19932;-68
2023/04/28 00:22:57;;;;;;;;;;;11.70;68.60;;;;;;5086925;28;19924;-69
2023/04/28 00:25:24;;;;;;;;;;;11.60;68.50;;;;;;5087253;28;19924;-67
2023/04/28 00:27:51;;;;;;;;;;;11.60;68.90;;;;;;5089404;28;20018;-68
2023/04/28 00:30:19;;;;;;;;;;;11.50;69.00;;;;;;5090664;28;19931;-68
2023/04/28 00:32:46;;;;;;;;;;;11.60;68.80;;;;;;5066640;28;20047;-69
2023/04/28 00:35:13;;;;;;;;;;;11.60;68.90;;;;;;5071432;28;20016;-69
2023/04/28 00:37:39;;;;;;;;;;;11.60;68.90;;;;;;5088781;28;19936;-69
2023/04/28 00:40:07;;;;;;;;;;;11.60;68.50;;;;;;5089304;28;19928;-69
2023/04/28 00:42:34;;;;;;;;;;;11.60;68.40;;;;;;5088497;28;19931;-69
2023/04/28 00:45:05;;;;;;;;;;;11.50;68.10;;;;;;5087588;28;19977;-69
2023/04/28 00:47:34;;;;;;;;;;;11.50;68.20;;;;;;5092082;28;20043;-68
2023/04/28 00:50:01;;;;;;;;;;;11.50;68.40;;;;;;5093580;28;19928;-68
2023/04/28 00:52:28;;;;;;;;;;;11.50;68.10;;;;;;5087809;28;20299;-68
2023/04/28 00:54:55;;;;;;;;;;;11.50;68.00;;;;;;5092035;28;19947;-68
2023/04/28 00:57:22;;;;;;;;;;;11.50;68.20;;;;;;5089552;28;19932;-67
2023/04/28 00:59:49;;;;;;;;;;;11.50;68.00;;;;;;5092491;28;20302;-67
2023/04/28 01:02:17;;;;;;;;;;;11.50;67.80;;;;;;5089811;28;20790;-68
2023/04/28 01:04:45;;;;;;;;;;;11.50;67.40;;;;;;5092168;28;20637;-68
2023/04/28 01:07:12;;;;;;;;;;;11.60;67.00;;;;;;5074838;28;19928;-68
2023/04/28 01:09:39;;;;;;;;;;;11.60;66.50;;;;;;5073232;28;19935;-68
2023/04/28 01:12:07;;;;;;;;;;;11.60;66.40;;;;;;5074310;28;19928;-67
2023/04/28 01:14:47;;;;;;;;;;;11.50;66.90;;;;;;5072574;28;19928;-67
2023/04/28 01:17:14;;;;;;;;;;;11.50;66.90;;;;;;5072953;28;19924;-67
2023/04/28 01:19:41;;;;;;;;;;;11.50;67.30;;;;;;5073908;28;20179;-69
2023/04/28 01:22:10;;;;;;;;;;;11.40;67.70;;;;;;5072098;28;20306;-67
2023/04/28 01:24:38;;;;;;;;;;;11.50;67.70;;;;;;5090976;28;19932;-69
2023/04/28 01:27:07;;;;;;;;;;;11.50;67.70;;;;;;5072585;28;19924;-68
2023/04/28 01:29:34;;;;;;;;;;;11.50;68.10;;;;;;5092166;28;19932;-67
2023/04/28 01:32:01;;;;;;;;;;;11.50;68.10;;;;;;5074904;28;20442;-68
2023/04/28 01:34:27;;;;;;;;;;;11.50;68.10;;;;;;5088111;28;20014;-67
2023/04/28 01:36:55;;;;;;;;;;;11.40;68.30;;;;;;5089665;28;19932;-68
2023/04/28 01:39:22;;;;;;;;;;;11.40;68.30;;;;;;5074544;28;20367;-69
2023/04/28 01:41:50;;;;;;;;;;;11.40;68.20;;;;;;5091277;28;19979;-68
2023/04/28 01:44:16;;;;;;;;;;;11.50;68.20;;;;;;5090743;28;19928;-68
2023/04/28 01:46:43;;;;;;;;;;;11.50;68.60;;;;;;5091361;28;19924;-68
2023/04/28 01:49:10;;;;;;;;;;;11.40;68.40;;;;;;5091729;28;19924;-68
2023/04/28 01:51:37;;;;;;;;;;;11.40;68.50;;;;;;5092949;28;19929;-67
2023/04/28 01:54:05;;;;;;;;;;;11.40;68.50;;;;;;5073103;28;20046;-67
2023/04/28 01:59:36;;;;;;;;;;;11.40;69.00;;;;;;5091877;28;20054;-68
2023/04/28 02:02:06;;;;;;;;;;;11.40;69.10;;;;;;5073123;28;20404;-67
2023/04/28 02:04:33;;;;;;;;;;;11.40;69.50;;;;;;5074948;28;19924;-69
2023/04/28 02:07:00;;;;;;;;;;;11.40;69.20;;;;;;5073033;28;20370;-68
2023/04/28 02:09:27;;;;;;;;;;;11.40;69.60;;;;;;5073028;28;20026;-67
2023/04/28 02:11:54;;;;;;;;;;;11.40;69.40;;;;;;5089135;28;20275;-67
2023/04/28 02:14:22;;;;;;;;;;;11.40;69.20;;;;;;5074281;28;20449;-68
2023/04/28 02:16:50;;;;;;;;;;;11.30;69.30;;;;;;5091580;28;19955;-69
2023/04/28 02:19:17;;;;;;;;;;;11.30;69.50;;;;;;5073279;28;19924;-68
2023/04/28 02:21:43;;;;;;;;;;;11.30;69.60;;;;;;5088750;28;19928;-68
2023/04/28 02:24:10;;;;;;;;;;;11.30;69.70;;;;;;5092121;28;19928;-68
2023/04/28 02:26:37;;;;;;;;;;;11.30;69.80;;;;;;5072924;28;19924;-68
2023/04/28 02:29:04;;;;;;;;;;;11.20;69.90;;;;;;5072935;28;19932;-68
2023/04/28 02:31:32;;;;;;;;;;;11.30;70.20;;;;;;5089721;28;20272;-68
2023/04/28 02:34:00;;;;;;;;;;;11.30;70.60;;;;;;5090290;28;19960;-68
2023/04/28 02:36:27;;;;;;;;;;;11.20;70.80;;;;;;5088408;28;20163;-68
2023/04/28 02:38:54;;;;;;;;;;;11.20;70.70;;;;;;5090071;28;20015;-68
2023/04/28 02:41:21;;;;;;;;;;;11.20;70.80;;;;;;5086307;28;19935;-67
2023/04/28 02:43:48;;;;;;;;;;;11.20;70.70;;;;;;5086372;28;19928;-67
2023/04/28 02:46:15;;;;;;;;;;;11.30;70.50;;;;;;5069984;28;20386;-68
2023/04/28 02:48:42;;;;;;;;;;;11.20;70.70;;;;;;5091086;28;19938;-68
2023/04/28 02:51:13;;;;;;;;;;;11.30;70.80;;;;;;5072968;28;19924;-68
2023/04/28 02:53:40;;;;;;;;;;;11.20;71.00;;;;;;5071589;28;20430;-68
2023/04/28 02:56:08;;;;;;;;;;;11.20;70.90;;;;;;5069975;28;20204;-68
2023/04/28 02:58:35;;;;;;;;;;;11.20;70.90;;;;;;5071804;28;20366;-67
2023/04/28 03:01:02;;;;;;;;;;;11.30;70.90;;;;;;5069365;28;20023;-69
2023/04/28 03:03:29;;;;;;;;;;;11.20;70.90;;;;;;5090622;28;19928;-64
2023/04/28 03:05:56;;;;;;;;;;;11.20;70.90;;;;;;5089467;28;19972;-67
2023/04/28 03:08:25;;;;;;;;;;;11.20;71.00;;;;;;5089866;28;19982;-67
2023/04/28 03:10:52;;;;;;;;;;;11.20;71.00;;;;;;5070668;28;19928;-67
2023/04/28 03:13:19;;;;;;;;;;;11.20;71.30;;;;;;5090597;28;19932;-68
2023/04/28 03:15:46;;;;;;;;;;;11.20;71.30;;;;;;5070830;28;19935;-67
2023/04/28 03:18:13;;;;;;;;;;;11.20;71.80;;;;;;5089541;28;20291;-68
2023/04/28 03:20:39;;;;;;;;;;;11.20;72.20;;;;;;5072455;28;19928;-67
2023/04/28 03:23:06;;;;;;;;;;;11.20;72.70;;;;;;5070323;28;19928;-68
2023/04/28 03:25:34;;;;;;;;;;;11.10;72.70;;;;;;5088385;28;19932;-68
2023/04/28 03:28:02;;;;;;;;;;;11.20;72.90;;;;;;5071648;28;19932;-68
2023/04/28 03:30:29;;;;;;;;;;;11.20;73.10;;;;;;5071038;28;19967;-67
2023/04/28 03:32:57;;;;;;;;;;;11.10;73.20;;;;;;5088914;28;20433;-68
2023/04/28 03:35:24;;;;;;;;;;;11.10;73.20;;;;;;5072231;28;20403;-67
2023/04/28 03:37:51;;;;;;;;;;;11.20;72.80;;;;;;5070098;28;19934;-68
2023/04/28 03:40:18;;;;;;;;;;;11.10;73.00;;;;;;5090096;28;19964;-68
2023/04/28 03:43:05;;;;;;;;;;;11.10;72.90;;;;;;5088219;28;19951;-67
2023/04/28 03:45:52;;;;;;;;;;;11.10;73.20;;;;;;5087180;28;19932;-66
2023/04/28 03:48:19;;;;;;;;;;;11.10;73.70;;;;;;5071707;28;19931;-66
2023/04/28 03:50:46;;;;;;;;;;;11.10;74.50;;;;;;5069399;28;19971;-67
2023/04/28 03:53:13;;;;;;;;;;;11.10;75.00;;;;;;5088869;28;20405;-68
2023/04/28 03:55:40;;;;;;;;;;;11.10;75.50;;;;;;5087445;28;20005;-68
2023/04/28 03:58:08;;;;;;;;;;;11.00;75.40;;;;;;5088810;28;20056;-67
2023/04/28 04:00:35;;;;;;;;;;;11.00;75.60;;;;;;5070144;28;19977;-67
2023/04/28 04:03:01;;;;;;;;;;;11.00;75.70;;;;;;5087732;28;19950;-68
2023/04/28 04:05:28;;;;;;;;;;;11.00;76.20;;;;;;5070573;28;19970;-67
2023/04/28 04:07:55;;;;;;;;;;;10.90;76.10;;;;;;5070585;28;19947;-67
2023/04/28 04:10:22;;;;;;;;;;;11.00;76.00;;;;;;5090151;28;19928;-67
2023/04/28 04:12:49;;;;;;;;;;;11.00;75.70;;;;;;5071448;28;19935;-66
2023/04/28 04:15:17;;;;;;;;;;;11.10;75.20;;;;;;5087269;28;19981;-67
2023/04/28 04:17:46;;;;;;;;;;;11.00;74.60;;;;;;5071762;28;19928;-66
2023/04/28 04:20:14;;;;;;;;;;;11.10;74.30;;;;;;5070038;28;20461;-68
2023/04/28 04:22:41;;;;;;;;;;;11.00;74.30;;;;;;5076306;28;19924;-67
2023/04/28 04:25:08;;;;;;;;;;;11.00;73.90;;;;;;5095362;28;19924;-68
2023/04/28 04:27:35;;;;;;;;;;;11.10;73.50;;;;;;5074591;28;19928;-68
2023/04/28 04:30:02;;;;;;;;;;;11.10;73.70;;;;;;5076425;28;19924;-68
2023/04/28 04:32:30;;;;;;;;;;;11.00;73.60;;;;;;5090352;28;20379;-67
2023/04/28 04:34:57;;;;;;;;;;;11.10;74.30;;;;;;5076232;28;19924;-67
2023/04/28 04:37:24;;;;;;;;;;;11.10;74.20;;;;;;5074719;28;19932;-68
2023/04/28 04:39:57;;;;;;;;;;;11.10;73.60;;;;;;5074617;28;19979;-68
2023/04/28 04:42:23;;;;;;;;;;;11.10;73.30;;;;;;5092637;28;19977;-67
2023/04/28 04:45:05;;;;;;;;;;;11.10;72.90;;;;;;5075935;28;19928;-68
2023/04/28 04:47:33;;;;;;;;;;;11.10;72.20;;;;;;5074541;28;19934;-68
2023/04/28 04:50:00;;;;;;;;;;;11.10;72.00;;;;;;5075187;28;19930;-69
2023/04/28 04:52:26;;;;;;;;;;;11.00;72.00;;;;;;5094012;28;20416;-66
2023/04/28 04:54:55;;;;;;;;;;;11.00;72.10;;;;;;5090754;28;19967;-67
2023/04/28 04:57:23;;;;;;;;;;;11.00;72.40;;;;;;5073593;28;20269;-67
2023/04/28 05:00:06;;;;;;;;;;;11.10;72.20;;;;;;5072758;28;20378;-67
2023/04/28 05:02:34;;;;;;;;;;;11.00;72.30;;;;;;5073456;28;19928;-67
2023/04/28 05:05:02;;;;;;;;;;;11.00;72.10;;;;;;5074558;28;19981;-67
2023/04/28 05:07:29;;;;;;;;;;;11.00;71.90;;;;;;5072556;28;19993;-67
2023/04/28 05:09:56;;;;;;;;;;;11.00;72.90;;;;;;5074936;28;20002;-67
2023/04/28 05:12:23;;;;;;;;;;;11.00;74.00;;;;;;5075129;28;20009;-67
2023/04/28 05:14:50;;;;;;;;;;;11.00;74.20;;;;;;5074477;28;19924;-67
2023/04/28 05:17:19;;;;;;;;;;;11.00;74.80;;;;;;5075038;28;20341;-67
2023/04/28 05:19:47;;;;;;;;;;;10.90;75.30;;;;;;5074664;28;20345;-67
2023/04/28 05:22:15;;;;;;;;;;;11.00;75.50;;;;;;5091687;28;20007;-67
2023/04/28 05:24:42;;;;;;;;;;;11.00;75.70;;;;;;5070668;28;19928;-67
2023/04/28 05:27:10;;;;;;;;;;;11.10;75.70;;;;;;5074794;28;19991;-68
2023/04/28 05:29:36;;;;;;;;;;;11.00;76.20;;;;;;5071902;28;20310;-67
2023/04/28 05:32:03;;;;;;;;;;;11.00;76.70;;;;;;5069943;28;20022;-66
2023/04/28 05:34:31;;;;;;;;;;;11.00;76.80;;;;;;5070584;28;19974;-67
2023/04/28 05:37:00;;;;;;;;;;;11.00;76.90;;;;;;5092103;28;19931;-66
2023/04/28 05:39:28;;;;;;;;;;;11.00;76.90;;;;;;5090821;28;20379;-67
2023/04/28 05:41:58;;;;;;;;;;;11.00;77.20;;;;;;5073470;28;19924;-67
2023/04/28 05:44:25;;;;;;;;;;;11.00;77.80;;;;;;5091315;28;19932;-68
2023/04/28 05:46:52;;;;;;;;;;;11.00;77.90;;;;;;5073916;28;19954;-67
2023/04/28 05:49:24;;;;;;;;;;;11.00;78.20;;;;;;5073971;28;20441;-68
2023/04/28 05:51:51;;;;;;;;;;;11.00;78.90;;;;;;5091768;28;19931;-67
2023/04/28 05:54:19;;;;;;;;;;;11.00;79.40;;;;;;5073265;28;19936;-67
2023/04/28 05:56:49;;;;;;;;;;;11.00;80.00;;;;;;5085516;28;19952;-67
2023/04/28 05:59:16;;;;;;;;;;;10.90;80.60;;;;;;5091442;28;20409;-67
2023/04/28 06:01:42;;;;;;;;;;;11.00;80.60;;;;;;5089736;28;19939;-67
2023/04/28 06:04:09;;;;;;;;;;;11.00;80.30;;;;;;5074332;28;19961;-67
2023/04/28 06:06:36;;;;;;;;;;;10.90;80.20;;;;;;5092016;28;19924;-66
2023/04/28 06:09:05;;;;;;;;;;;10.90;79.90;;;;;;5087418;28;19939;-66
2023/04/28 06:11:34;;;;;;;;;;;11.00;79.70;;;;;;5072837;28;19928;-66
2023/04/28 06:14:01;;;;;;;;;;;10.90;80.10;;;;;;5089838;28;19924;-66
2023/04/28 06:16:28;;;;;;;;;;;10.90;80.70;;;;;;5092891;28;19924;-66
2023/04/28 06:18:55;;;;;;;;;;;10.90;81.00;;;;;;5071651;28;19974;-67
2023/04/28 06:21:23;;;;;;;;;;;10.90;81.10;;;;;;5069859;28;19946;-66
2023/04/28 06:23:50;;;;;;;;;;;10.90;81.20;;;;;;5092302;28;20445;-67
2023/04/28 06:26:17;;;;;;;;;;;10.90;81.40;;;;;;5073972;28;20275;-67
2023/04/28 06:28:45;;;;;;;;;;;10.90;82.00;;;;;;5072776;28;19930;-66
2023/04/28 06:31:28;;;;;;;;;;;10.90;81.70;;;;;;5089491;28;19931;-67
2023/04/28 06:33:56;;;;;;;;;;;10.90;81.90;;;;;;5090768;28;20302;-66
2023/04/28 06:36:23;;;;;;;;;;;10.90;82.00;;;;;;5069426;28;19923;-66
2023/04/28 06:38:51;;;;;;;;;;;10.90;82.10;;;;;;5090582;28;19970;-67
2023/04/28 06:41:18;;;;;;;;;;;11.00;82.60;;;;;;5091514;28;19939;-67
2023/04/28 06:43:50;;;;;;;;;;;11.00;81.80;;;;;;5071909;28;19932;-67
2023/04/28 06:46:30;;;;;;;;;;;11.00;81.50;;;;;;5073518;28;19932;-67
2023/04/28 06:48:57;;;;;;;;;;;11.00;81.60;;;;;;5091082;28;19932;-66
2023/04/28 06:51:24;;;;;;;;;;;10.90;82.10;;;;;;5090579;28;19937;-67
2023/04/28 06:53:52;;;;;;;;;;;10.90;82.10;;;;;;5073444;28;20018;-67
2023/04/28 06:56:19;;;;;;;;;;;10.90;81.90;;;;;;5090508;28;19924;-66
2023/04/28 06:58:46;;;;;;;;;;;10.90;81.90;;;;;;5073065;28;19928;-65
2023/04/28 07:01:14;;;;;;;;;;;10.90;82.40;;;;;;5090436;28;20018;-66
2023/04/28 07:03:41;;;;;;;;;;;10.90;82.50;;;;;;5091136;28;19924;-67
2023/04/28 07:06:08;;;;;;;;;;;10.90;82.70;;;;;;5089907;28;19981;-66
2023/04/28 07:08:35;;;;;;;;;;;10.90;82.80;;;;;;5088763;28;19934;-66
2023/04/28 07:11:05;;;;;;;;;;;10.80;82.80;;;;;;5090152;28;20019;-66
2023/04/28 07:13:31;;;;;;;;;;;10.80;82.80;;;;;;5089757;28;19936;-66
2023/04/28 07:15:58;;;;;;;;;;;10.90;82.80;;;;;;5089345;28;19932;-67
2023/04/28 07:18:27;;;;;;;;;;;10.90;82.40;;;;;;5090426;28;19928;-66
2023/04/28 07:20:54;;;;;;;;;;;10.90;82.30;;;;;;5088106;28;19928;-65
2023/04/28 07:23:21;;;;;;;;;;;10.90;82.80;;;;;;5088671;28;19939;-66
2023/04/28 07:25:47;;;;;;;;;;;11.00;82.70;;;;;;5084675;28;20299;-66
2023/04/28 07:28:14;;;;;;;;;;;10.90;83.10;;;;;;5088130;28;20336;-66
2023/04/28 07:30:41;;;;;;;;;;;10.90;83.20;;;;;;5090748;28;20360;-67
2023/04/28 07:33:07;;;;;;;;;;;10.90;83.20;;;;;;5089344;28;19932;-66
2023/04/28 07:35:35;;;;;;;;;;;11.00;83.00;;;;;;5081112;28;19932;-66
2023/04/28 07:38:02;;;;;;;;;;;10.90;83.40;;;;;;5089162;28;19924;-66
2023/04/28 07:40:29;;;;;;;;;;;10.90;83.50;;;;;;5090236;28;19935;-67
2023/04/28 07:42:56;;;;;;;;;;;10.90;83.80;;;;;;5087734;28;20398;-67
2023/04/28 07:45:22;;;;;;;;;;;10.90;84.00;;;;;;5089293;28;19993;-67
2023/04/28 07:47:49;;;;;;;;;;;10.90;84.00;;;;;;5091152;28;20345;-66
2023/04/28 07:50:16;;;;;;;;;;;10.90;84.10;;;;;;5090309;28;19928;-67
2023/04/28 07:52:47;;;;;;;;;;;11.00;83.80;;;;;;5087434;28;19985;-65
2023/04/28 07:55:14;;;;;;;;;;;11.00;83.20;;;;;;5088678;28;19939;-66
2023/04/28 07:57:41;;;;;;;;;;;11.10;83.20;;;;;;5089726;28;19924;-66
2023/04/28 08:00:11;;;;;;;;;;;11.10;83.50;;;;;;5090128;28;19935;-63
2023/04/28 08:02:44;;;;;;;;;;;11.10;83.60;;;;;;5089445;28;20027;-62
2023/04/28 08:05:14;;;;;;;;;;;11.10;83.50;;;;;;5090535;28;19985;-62
2023/04/28 08:07:40;;;;;;;;;;;11.20;83.20;;;;;;5090913;28;20572;-61
2023/04/28 08:10:09;;;;;;;;;;;11.30;83.50;;;;;;5083654;28;20386;-62
2023/04/28 08:12:37;;;;;;;;;;;11.30;83.60;;;;;;5089402;28;20374;-61
2023/04/28 08:15:04;;;;;;;;;;;11.20;83.00;;;;;;5089923;28;19924;-62
2023/04/28 08:17:31;;;;;;;;;;;11.30;83.30;;;;;;5090305;28;20022;-62
2023/04/28 08:19:58;;;;;;;;;;;11.30;83.80;;;;;;5088565;28;19928;-61
2023/04/28 08:22:24;;;;;;;;;;;11.40;83.20;;;;;;5090054;28;19935;-63
2023/04/28 08:24:52;;;;;;;;;;;11.40;83.10;;;;;;5089748;28;20019;-63
2023/04/28 08:27:22;;;;;;;;;;;11.40;83.30;;;;;;5088695;28;19931;-63
2023/04/28 08:29:49;;;;;;;;;;;11.40;83.30;;;;;;5085871;28;19928;-63
2023/04/28 08:32:15;;;;;;;;;;;11.30;83.40;;;;;;5089310;28;20335;-62
2023/04/28 08:34:42;;;;;;;;;;;11.40;83.70;;;;;;5088516;28;19939;-62
2023/04/28 08:37:09;;;;;;;;;;;11.40;83.50;;;;;;5085272;28;19981;-62
2023/04/28 08:39:36;;;;;;;;;;;11.40;83.40;;;;;;5089408;28;19939;-63
2023/04/28 08:42:04;;;;;;;;;;;11.50;83.50;;;;;;5088994;28;19935;-62
2023/04/28 08:44:37;;;;;;;;;;;11.40;83.60;;;;;;5088396;28;19936;-62
2023/04/28 08:47:05;;;;;;;;;;;11.40;83.80;;;;;;5089805;28;19932;-62
2023/04/28 08:49:34;;;;;;;;;;;11.40;83.50;;;;;;5086744;28;19931;-63
2023/04/28 08:52:01;;;;;;;;;;;11.40;83.80;;;;;;5071335;28;19935;-63
2023/04/28 08:54:30;;;;;;;;;;;11.40;83.70;;;;;;5089500;28;20457;-61
2023/04/28 08:56:57;;;;;;;;;;;11.40;83.80;;;;;;5086635;28;20397;-61
2023/04/28 08:59:24;;;;;;;;;;;11.40;84.00;;;;;;5089865;28;20390;-63
2023/04/28 09:01:52;;;;;;;;;;;11.40;84.00;;;;;;5087733;28;20283;-61
2023/04/28 09:04:21;;;;;;;;;;;11.40;84.20;;;;;;5088315;28;20758;-62
2023/04/28 09:06:48;;;;;;;;;;;11.40;84.40;;;;;;5089983;28;19924;-62
2023/04/28 09:09:30;;;;;;;;;;;11.50;84.80;;;;;;5090880;28;19932;-62
2023/04/28 09:11:58;;;;;;;;;;;11.50;84.60;;;;;;5092700;28;19985;-62
2023/04/28 09:14:25;;;;;;;;;;;11.50;84.70;;;;;;5091661;28;19935;-62
2023/04/28 09:16:56;;;;;;;;;;;11.60;84.50;;;;;;5093772;28;20447;-62
2023/04/28 09:19:23;;;;;;;;;;;11.60;84.60;;;;;;5093083;28;19927;-62
2023/04/28 09:21:51;;;;;;;;;;;11.70;84.80;;;;;;5089670;28;20374;-62
2023/04/28 09:24:31;;;;;;;;;;;11.70;84.70;;;;;;5092500;28;19938;-62
2023/04/28 09:26:58;;;;;;;;;;;11.80;84.30;;;;;;5088365;28;19928;-63
2023/04/28 09:29:25;;;;;;;;;;;11.90;84.20;;;;;;5091376;28;19928;-62
2023/04/28 09:31:54;;;;;;;;;;;11.80;83.50;;;;;;5092041;28;20279;-62
2023/04/28 09:34:22;;;;;;;;;;;11.80;84.40;;;;;;5092693;28;19977;-63
2023/04/28 09:36:49;;;;;;;;;;;11.80;84.50;;;;;;5091370;28;20014;-62
2023/04/28 09:39:28;;;;;;;;;;;11.80;84.40;;;;;;5092999;28;20027;-63
2023/04/28 09:41:55;;;;;;;;;;;11.90;84.00;;;;;;5090614;28;19928;-64
2023/04/28 09:44:22;;;;;;;;;;;11.90;84.20;;;;;;5088886;28;19985;-61
2023/04/28 09:46:49;;;;;;;;;;;11.90;84.70;;;;;;5091037;28;20381;-63
2023/04/28 09:49:16;;;;;;;;;;;11.90;84.80;;;;;;5092913;28;19925;-62
2023/04/28 09:51:44;;;;;;;;;;;11.90;85.10;;;;;;5089469;28;20014;-62
2023/04/28 09:54:11;;;;;;;;;;;11.90;85.10;;;;;;5090996;28;19924;-62
2023/04/28 09:56:41;;;;;;;;;;;11.90;85.10;;;;;;5091149;28;19931;-63
2023/04/28 09:59:07;;;;;;;;;;;11.90;84.90;;;;;;5091573;28;19924;-63
2023/04/28 10:01:37;;;;;;;;;;;11.90;84.70;;;;;;5089476;28;19931;-62
2023/04/28 10:04:05;;;;;;;;;;;12.00;85.50;;;;;;5091548;28;20403;-62
2023/04/28 10:06:33;;;;;;;;;;;12.00;84.40;;;;;;5092344;28;19931;-62
2023/04/28 10:09:04;;;;;;;;;;;12.00;85.20;;;;;;5091015;28;20232;-62
2023/04/28 10:11:32;;;;;;;;;;;12.10;84.30;;;;;;5091032;28;19924;-62
2023/04/28 10:13:59;;;;;;;;;;;12.10;84.90;;;;;;5079977;28;19932;-62
2023/04/28 10:16:30;;;;;;;;;;;12.20;84.80;;;;;;5090677;28;20330;-62
2023/04/28 10:18:57;;;;;;;;;;;12.20;85.00;;;;;;5089773;28;19947;-63
2023/04/28 10:21:25;;;;;;;;;;;12.30;84.60;;;;;;5089560;28;19977;-63
2023/04/28 10:24:10;;;;;;;;;;;12.30;85.10;;;;;;5091071;28;19984;-63
2023/04/28 10:26:55;;;;;;;;;;;12.30;84.50;;;;;;5088119;28;19967;-63
2023/04/28 10:29:24;;;;;;;;;;;12.40;85.20;;;;;;5084278;28;19939;-62
2023/04/28 10:32:06;;;;;;;;;;;12.40;84.90;;;;;;5088157;28;19924;-63
2023/04/28 10:34:34;;;;;;;;;;;12.40;85.10;;;;;;5075935;28;19924;-63
2023/04/28 10:37:03;;;;;;;;;;;12.40;84.90;;;;;;5089542;28;19932;-62
2023/04/28 10:39:31;;;;;;;;;;;12.40;84.70;;;;;;5089971;28;20405;-63
2023/04/28 10:45:48;;;;;;;;;;;12.50;84.10;;;;;;5085160;28;19935;-63
2023/04/28 10:48:17;;;;;;;;;;;12.60;85.20;;;;;;5089441;28;19928;-62
2023/04/28 10:51:16;;;;;;;;;;;12.60;85.20;;;;;;5088480;28;19924;-62
2023/04/28 10:54:02;;;;;;;;;;;12.60;85.30;;;;;;5068049;28;19938;-63
2023/04/28 10:56:29;;;;;;;;;;;12.70;85.70;;;;;;5087616;28;19952;-63
2023/04/28 10:58:56;;;;;;;;;;;12.70;85.90;;;;;;5086032;28;20005;-63
2023/04/28 11:01:27;;;;;;;;;;;12.70;85.50;;;;;;5065949;28;19924;-63
2023/04/28 11:04:01;;;;;;;;;;;12.80;85.30;;;;;;5088308;28;19947;-63
2023/04/28 11:06:31;;;;;;;;;;;12.90;85.10;;;;;;5089787;28;19935;-63
2023/04/28 11:08:59;;;;;;;;;;;13.00;85.00;;;;;;5086169;28;20019;-63
2023/04/28 11:11:26;;;;;;;;;;;13.10;85.00;;;;;;5086683;28;19996;-63
2023/04/28 11:13:54;;;;;;;;;;;13.20;85.00;;;;;;5086739;28;20302;-62
2023/04/28 11:16:22;;;;;;;;;;;13.20;84.60;;;;;;5085193;28;19931;-62
2023/04/28 11:18:51;;;;;;;;;;;13.30;84.80;;;;;;5088162;28;19985;-63
2023/04/28 11:21:19;;;;;;;;;;;13.40;84.30;;;;;;5084452;28;19934;-62
2023/04/28 11:23:46;;;;;;;;;;;13.50;84.20;;;;;;5086101;28;19924;-62
2023/04/28 11:26:13;;;;;;;;;;;13.50;84.20;;;;;;5086514;28;19928;-63
2023/04/28 11:28:47;;;;;;;;;;;13.50;84.50;;;;;;5084929;28;19943;-62
2023/04/28 11:31:17;;;;;;;;;;;13.50;84.70;;;;;;5082463;28;19958;-63
2023/04/28 11:33:46;;;;;;;;;;;13.60;84.80;;;;;;5085417;28;19927;-62
2023/04/28 11:36:23;;;;;;;;;;;13.60;84.60;;;;;;5088987;28;19928;-62
2023/04/28 11:38:50;;;;;;;;;;;13.70;84.70;;;;;;5087190;28;20313;-62
2023/04/28 11:41:17;;;;;;;;;;;13.80;84.00;;;;;;5084287;28;19951;-63
2023/04/28 11:43:43;;;;;;;;;;;13.90;84.40;;;;;;5086227;28;20378;-62
2023/04/28 11:46:10;;;;;;;;;;;13.90;84.20;;;;;;5086125;28;20467;-62
2023/04/28 11:48:37;;;;;;;;;;;14.00;84.00;;;;;;5085360;28;19927;-63
2023/04/28 11:51:04;;;;;;;;;;;14.10;83.90;;;;;;5085395;28;19970;-62
2023/04/28 11:53:48;;;;;;;;;;;14.20;83.90;;;;;;5081460;28;19943;-63
2023/04/28 11:56:17;;;;;;;;;;;14.30;83.90;;;;;;5083514;28;19931;-62
2023/04/28 11:58:44;;;;;;;;;;;14.30;83.80;;;;;;5081126;28;19978;-63
2023/04/28 12:01:11;;;;;;;;;;;14.40;83.80;;;;;;5085257;28;19995;-61
2023/04/28 12:03:48;;;;;;;;;;;14.40;83.90;;;;;;5086351;28;20019;-62
2023/04/28 12:06:17;;;;;;;;;;;14.40;83.70;;;;;;5087731;28;19928;-62
2023/04/28 12:08:44;;;;;;;;;;;14.50;83.60;;;;;;5088859;28;19924;-62
2023/04/28 12:11:12;;;;;;;;;;;14.70;83.20;;;;;;5087058;28;19934;-63
2023/04/28 12:13:40;;;;;;;;;;;14.80;82.80;;;;;;5085986;28;19932;-63
2023/04/28 12:16:07;;;;;;;;;;;14.90;82.50;;;;;;5089731;28;20325;-63
2023/04/28 12:19:08;;;;;;;;;;;14.80;82.60;;;;;;5087062;28;19927;-63
2023/04/28 12:21:37;;;;;;;;;;;14.80;83.00;;;;;;5088269;28;19956;-63
2023/04/28 12:24:15;;;;;;;;;;;14.80;83.30;;;;;;5088909;28;19964;-64
2023/04/28 12:26:45;;;;;;;;;;;14.90;83.50;;;;;;5085571;28;19932;-63
2023/04/28 12:29:31;;;;;;;;;;;14.80;83.30;;;;;;5089088;28;19924;-63
2023/04/28 12:32:05;;;;;;;;;;;14.80;83.30;;;;;;5089239;28;19931;-62
2023/04/28 12:34:32;;;;;;;;;;;14.90;83.20;;;;;;5091505;28;19931;-62
2023/04/28 12:37:05;;;;;;;;;;;14.90;83.70;;;;;;5091838;28;19928;-63
2023/04/28 12:39:42;;;;;;;;;;;14.90;83.60;;;;;;5090124;28;19939;-62
2023/04/28 12:42:12;;;;;;;;;;;15.00;84.00;;;;;;5090434;28;19947;-62
2023/04/28 12:44:39;;;;;;;;;;;15.00;84.00;;;;;;5094303;28;20106;-63
2023/04/28 12:47:25;;;;;;;;;;;15.00;83.80;;;;;;5095256;28;19923;-63
2023/04/28 12:49:52;;;;;;;;;;;15.10;83.80;;;;;;5093476;28;19932;-61
2023/04/28 12:52:19;;;;;;;;;;;15.20;83.50;;;;;;5094289;28;19974;-63
2023/04/28 12:54:52;;;;;;;;;;;15.30;83.10;;;;;;5094187;28;19928;-63
2023/04/28 12:57:20;;;;;;;;;;;15.40;83.00;;;;;;5093547;28;19924;-62
2023/04/28 12:59:57;;;;;;;;;;;15.50;82.70;;;;;;5094266;28;20444;-63
2023/04/28 13:05:49;;;;;;;;;;;15.60;82.40;;;;;;5081524;28;19924;-64
2023/04/28 13:08:20;;;;;;;;;;;15.60;82.20;;;;;;5089094;28;20336;-62
2023/04/28 13:10:56;;;;;;;;;;;15.70;82.80;;;;;;5075249;28;20390;-63
2023/04/28 13:13:23;;;;;;;;;;;15.80;82.50;;;;;;5092332;28;20040;-62
2023/04/28 13:15:53;;;;;;;;;;;15.80;82.40;;;;;;5093814;28;19924;-62
2023/04/28 13:18:22;;;;;;;;;;;15.90;82.60;;;;;;5093906;28;20196;-63
2023/04/28 13:20:50;;;;;;;;;;;15.90;82.20;;;;;;5091628;28;19964;-63
2023/04/28 13:23:17;;;;;;;;;;;16.10;81.80;;;;;;5092511;28;19935;-63
2023/04/28 13:25:47;;;;;;;;;;;16.20;81.70;;;;;;5091836;28;19999;-62
2023/04/28 13:28:16;;;;;;;;;;;16.30;81.60;;;;;;5093415;28;20006;-62
2023/04/28 13:30:49;;;;;;;;;;;16.30;81.80;;;;;;5093106;28;20324;-62
2023/04/28 13:33:16;;;;;;;;;;;16.40;81.40;;;;;;5093516;28;19924;-62
2023/04/28 13:35:44;;;;;;;;;;;16.40;80.80;;;;;;5093083;28;19928;-63
2023/04/28 13:38:22;;;;;;;;;;;16.40;81.00;;;;;;5094166;28;19928;-62
2023/04/28 13:40:49;;;;;;;;;;;16.50;81.50;;;;;;5087625;28;19975;-63
2023/04/28 13:43:16;;;;;;;;;;;16.50;81.10;;;;;;5091636;28;19924;-62
2023/04/28 13:45:43;;;;;;;;;;;16.60;81.20;;;;;;5092941;28;19970;-62
2023/04/28 13:48:11;;;;;;;;;;;16.60;81.00;;;;;;5091533;28;20018;-62
2023/04/28 13:50:37;;;;;;;;;;;16.60;81.20;;;;;;5091147;28;20298;-63
2023/04/28 13:53:06;;;;;;;;;;;16.60;80.60;;;;;;5091767;28;19963;-63
2023/04/28 13:55:33;;;;;;;;;;;16.60;80.80;;;;;;5091426;28;19932;-63
2023/04/28 13:58:03;;;;;;;;;;;16.60;80.30;;;;;;5089981;28;20027;-63
2023/04/28 14:00:34;;;;;;;;;;;16.70;80.30;;;;;;5090239;28;19932;-62
2023/04/28 14:03:01;;;;;;;;;;;16.70;80.60;;;;;;5074929;28;19924;-63
2023/04/28 14:05:27;;;;;;;;;;;16.70;81.00;;;;;;5090474;28;20295;-63
2023/04/28 14:07:55;;;;;;;;;;;16.60;81.30;;;;;;5074229;28;19932;-63
2023/04/28 14:10:23;;;;;;;;;;;16.70;80.50;;;;;;5089505;28;19932;-64
2023/04/28 14:12:50;;;;;;;;;;;16.70;80.80;;;;;;5092270;28;19935;-62
2023/04/28 14:15:17;;;;;;;;;;;16.80;81.30;;;;;;5090250;28;19977;-63
2023/04/28 14:17:44;;;;;;;;;;;16.80;80.40;;;;;;5090160;28;19974;-63
2023/04/28 14:20:12;;;;;;;;;;;16.80;80.60;;;;;;5091955;28;19932;-62
2023/04/28 14:22:38;;;;;;;;;;;16.70;80.70;;;;;;5088696;28;20881;-63
2023/04/28 14:25:06;;;;;;;;;;;16.60;80.90;;;;;;5090418;28;20379;-63
2023/04/28 14:27:35;;;;;;;;;;;16.60;80.70;;;;;;5092071;28;19928;-63
2023/04/28 14:30:02;;;;;;;;;;;16.50;80.70;;;;;;5069774;28;19928;-63
2023/04/28 14:32:29;;;;;;;;;;;16.40;81.00;;;;;;5071346;28;19924;-60
2023/04/28 14:34:56;;;;;;;;;;;16.40;81.10;;;;;;5092951;28;20267;-63